sensor_id;sensor_type;location;lat;lon;timestamp;P1;durP1;ratioP1;P2;durP2;ratioP2
72517;SDS011;60540;51.178;6.738;2024-01-27T00:01:37;8.15;;;2.05;;
72517;SDS011;60540;51.178;6.738;2024-01-27T00:04:22;5.75;;;1.90;;
72517;SDS011;60540;51.178;6.738;2024-01-27T00:07:06;7.03;;;1.85;;
72517;SDS011;60540;51.178;6.738;2024-01-27T00:09:51;5.65;;;2.55;;
72517;SDS011;60540;51.178;6.738;2024-01-27T00:12:36;5.28;;;2.13;;
72517;SDS011;60540;51.178;6.738;2024-01-27T00:15:20;5.78;;;1.73;;
72517;SDS011;60540;51.178;6.738;2024-01-27T00:18:04;9.15;;;2.20;;
72517;SDS011;60540;51.178;6.738;2024-01-27T00:20:49;6.70;;;1.95;;
72517;SDS011;60540;51.178;6.738;2024-01-27T00:23:33;3.97;;;1.80;;
72517;SDS011;60540;51.178;6.738;2024-01-27T00:26:21;5.97;;;2.95;;
72517;SDS011;60540;51.178;6.738;2024-01-27T00:29:05;10.10;;;2.00;;
72517;SDS011;60540;51.178;6.738;2024-01-27T00:31:49;4.70;;;1.85;;
72517;SDS011;60540;51.178;6.738;2024-01-27T00:34:34;8.52;;;2.33;;
72517;SDS011;60540;51.178;6.738;2024-01-27T00:37:18;7.65;;;2.20;;
72517;SDS011;60540;51.178;6.738;2024-01-27T00:40:03;9.68;;;2.20;;
72517;SDS011;60540;51.178;6.738;2024-01-27T00:42:49;8.95;;;1.83;;
72517;SDS011;60540;51.178;6.738;2024-01-27T00:45:33;7.40;;;2.20;;
72517;SDS011;60540;51.178;6.738;2024-01-27T00:48:17;3.85;;;1.73;;
72517;SDS011;60540;51.178;6.738;2024-01-27T00:51:03;7.72;;;2.50;;
72517;SDS011;60540;51.178;6.738;2024-01-27T00:53:48;6.97;;;2.03;;
72517;SDS011;60540;51.178;6.738;2024-01-27T00:56:32;4.93;;;1.80;;
72517;SDS011;60540;51.178;6.738;2024-01-27T00:59:17;10.00;;;2.28;;
72517;SDS011;60540;51.178;6.738;2024-01-27T01:02:00;4.00;;;1.60;;
72517;SDS011;60540;51.178;6.738;2024-01-27T01:04:45;6.90;;;2.10;;
72517;SDS011;60540;51.178;6.738;2024-01-27T01:07:29;8.93;;;1.70;;
72517;SDS011;60540;51.178;6.738;2024-01-27T01:10:17;7.80;;;2.10;;
72517;SDS011;60540;51.178;6.738;2024-01-27T01:13:01;5.95;;;2.20;;
72517;SDS011;60540;51.178;6.738;2024-01-27T01:15:45;7.60;;;2.00;;
72517;SDS011;60540;51.178;6.738;2024-01-27T01:18:29;6.28;;;2.35;;
72517;SDS011;60540;51.178;6.738;2024-01-27T01:21:14;5.22;;;2.28;;
72517;SDS011;60540;51.178;6.738;2024-01-27T01:23:58;8.43;;;2.20;;
72517;SDS011;60540;51.178;6.738;2024-01-27T01:26:43;4.90;;;2.08;;
72517;SDS011;60540;51.178;6.738;2024-01-27T01:29:27;8.25;;;2.30;;
72517;SDS011;60540;51.178;6.738;2024-01-27T01:32:11;7.82;;;2.25;;
72517;SDS011;60540;51.178;6.738;2024-01-27T01:34:55;5.97;;;2.00;;
72517;SDS011;60540;51.178;6.738;2024-01-27T01:37:39;6.90;;;2.13;;
72517;SDS011;60540;51.178;6.738;2024-01-27T01:40:23;5.35;;;2.20;;
72517;SDS011;60540;51.178;6.738;2024-01-27T01:43:09;10.35;;;3.05;;
72517;SDS011;60540;51.178;6.738;2024-01-27T01:45:55;4.82;;;2.42;;
72517;SDS011;60540;51.178;6.738;2024-01-27T01:48:39;7.68;;;1.70;;
72517;SDS011;60540;51.178;6.738;2024-01-27T01:51:25;8.38;;;2.67;;
72517;SDS011;60540;51.178;6.738;2024-01-27T01:54:10;6.00;;;2.53;;
72517;SDS011;60540;51.178;6.738;2024-01-27T01:56:55;7.80;;;2.08;;
72517;SDS011;60540;51.178;6.738;2024-01-27T01:59:39;6.45;;;2.40;;
72517;SDS011;60540;51.178;6.738;2024-01-27T02:02:25;7.57;;;2.30;;
72517;SDS011;60540;51.178;6.738;2024-01-27T02:05:09;6.68;;;1.65;;
72517;SDS011;60540;51.178;6.738;2024-01-27T02:07:54;6.57;;;2.10;;
72517;SDS011;60540;51.178;6.738;2024-01-27T02:10:40;6.75;;;2.05;;
72517;SDS011;60540;51.178;6.738;2024-01-27T02:13:24;6.97;;;1.92;;
72517;SDS011;60540;51.178;6.738;2024-01-27T02:16:09;8.27;;;2.13;;
72517;SDS011;60540;51.178;6.738;2024-01-27T02:18:53;9.27;;;2.40;;
72517;SDS011;60540;51.178;6.738;2024-01-27T02:21:37;6.30;;;1.75;;
72517;SDS011;60540;51.178;6.738;2024-01-27T02:24:21;13.20;;;2.92;;
72517;SDS011;60540;51.178;6.738;2024-01-27T02:27:06;8.40;;;2.53;;
72517;SDS011;60540;51.178;6.738;2024-01-27T02:29:50;6.63;;;2.45;;
72517;SDS011;60540;51.178;6.738;2024-01-27T02:32:35;7.85;;;2.35;;
72517;SDS011;60540;51.178;6.738;2024-01-27T02:35:19;12.30;;;2.10;;
72517;SDS011;60540;51.178;6.738;2024-01-27T02:38:03;5.80;;;2.33;;
72517;SDS011;60540;51.178;6.738;2024-01-27T02:40:47;7.40;;;1.98;;
72517;SDS011;60540;51.178;6.738;2024-01-27T02:43:32;7.03;;;2.33;;
72517;SDS011;60540;51.178;6.738;2024-01-27T02:46:16;7.18;;;2.20;;
72517;SDS011;60540;51.178;6.738;2024-01-27T02:49:00;10.30;;;2.10;;
72517;SDS011;60540;51.178;6.738;2024-01-27T02:51:45;10.50;;;2.63;;
72517;SDS011;60540;51.178;6.738;2024-01-27T02:54:29;6.03;;;2.20;;
72517;SDS011;60540;51.178;6.738;2024-01-27T02:57:13;8.30;;;2.47;;
72517;SDS011;60540;51.178;6.738;2024-01-27T02:59:59;8.88;;;2.22;;
72517;SDS011;60540;51.178;6.738;2024-01-27T03:02:43;7.50;;;2.90;;
72517;SDS011;60540;51.178;6.738;2024-01-27T03:05:28;11.38;;;2.42;;
72517;SDS011;60540;51.178;6.738;2024-01-27T03:08:12;6.95;;;2.50;;
72517;SDS011;60540;51.178;6.738;2024-01-27T03:10:56;9.45;;;2.40;;
72517;SDS011;60540;51.178;6.738;2024-01-27T03:13:40;7.05;;;2.15;;
72517;SDS011;60540;51.178;6.738;2024-01-27T03:16:29;11.43;;;2.33;;
72517;SDS011;60540;51.178;6.738;2024-01-27T03:19:13;8.32;;;2.38;;
72517;SDS011;60540;51.178;6.738;2024-01-27T03:21:57;5.38;;;2.22;;
72517;SDS011;60540;51.178;6.738;2024-01-27T03:24:41;13.07;;;2.97;;
72517;SDS011;60540;51.178;6.738;2024-01-27T03:27:26;7.68;;;2.33;;
72517;SDS011;60540;51.178;6.738;2024-01-27T03:30:10;10.00;;;2.30;;
72517;SDS011;60540;51.178;6.738;2024-01-27T03:32:54;6.15;;;1.98;;
72517;SDS011;60540;51.178;6.738;2024-01-27T03:35:41;7.60;;;2.95;;
72517;SDS011;60540;51.178;6.738;2024-01-27T03:38:26;5.30;;;2.15;;
72517;SDS011;60540;51.178;6.738;2024-01-27T03:41:10;7.35;;;2.35;;
72517;SDS011;60540;51.178;6.738;2024-01-27T03:43:55;9.82;;;2.47;;
72517;SDS011;60540;51.178;6.738;2024-01-27T03:46:39;7.00;;;2.53;;
72517;SDS011;60540;51.178;6.738;2024-01-27T03:49:23;7.90;;;2.80;;
72517;SDS011;60540;51.178;6.738;2024-01-27T03:52:08;7.68;;;2.42;;
72517;SDS011;60540;51.178;6.738;2024-01-27T03:54:52;5.90;;;2.10;;
72517;SDS011;60540;51.178;6.738;2024-01-27T03:57:36;5.88;;;2.90;;
72517;SDS011;60540;51.178;6.738;2024-01-27T04:00:21;7.45;;;1.98;;
72517;SDS011;60540;51.178;6.738;2024-01-27T04:03:05;10.23;;;3.22;;
72517;SDS011;60540;51.178;6.738;2024-01-27T04:05:50;9.43;;;2.40;;
72517;SDS011;60540;51.178;6.738;2024-01-27T04:08:34;8.15;;;2.20;;
72517;SDS011;60540;51.178;6.738;2024-01-27T04:11:22;6.72;;;2.55;;
72517;SDS011;60540;51.178;6.738;2024-01-27T04:14:06;9.50;;;2.72;;
72517;SDS011;60540;51.178;6.738;2024-01-27T04:16:50;5.95;;;2.47;;
72517;SDS011;60540;51.178;6.738;2024-01-27T04:19:34;8.65;;;2.40;;
72517;SDS011;60540;51.178;6.738;2024-01-27T04:22:19;9.15;;;2.10;;
72517;SDS011;60540;51.178;6.738;2024-01-27T04:25:03;8.52;;;2.50;;
72517;SDS011;60540;51.178;6.738;2024-01-27T04:27:48;4.93;;;2.30;;
72517;SDS011;60540;51.178;6.738;2024-01-27T04:30:32;8.70;;;2.60;;
72517;SDS011;60540;51.178;6.738;2024-01-27T04:33:17;7.45;;;2.45;;
72517;SDS011;60540;51.178;6.738;2024-01-27T04:36:01;9.45;;;2.38;;
72517;SDS011;60540;51.178;6.738;2024-01-27T04:38:45;7.38;;;2.45;;
72517;SDS011;60540;51.178;6.738;2024-01-27T04:41:29;7.88;;;2.45;;
72517;SDS011;60540;51.178;6.738;2024-01-27T04:44:13;7.97;;;2.38;;
72517;SDS011;60540;51.178;6.738;2024-01-27T04:46:57;8.80;;;2.67;;
72517;SDS011;60540;51.178;6.738;2024-01-27T04:49:42;5.78;;;2.38;;
72517;SDS011;60540;51.178;6.738;2024-01-27T04:52:26;7.43;;;2.35;;
72517;SDS011;60540;51.178;6.738;2024-01-27T04:55:11;8.00;;;2.38;;
72517;SDS011;60540;51.178;6.738;2024-01-27T04:57:54;5.40;;;2.20;;
72517;SDS011;60540;51.178;6.738;2024-01-27T05:00:39;8.25;;;2.42;;
72517;SDS011;60540;51.178;6.738;2024-01-27T05:03:23;6.80;;;2.78;;
72517;SDS011;60540;51.178;6.738;2024-01-27T05:06:07;6.32;;;2.35;;
72517;SDS011;60540;51.178;6.738;2024-01-27T05:08:52;9.20;;;2.22;;
72517;SDS011;60540;51.178;6.738;2024-01-27T05:11:37;7.22;;;2.38;;
72517;SDS011;60540;51.178;6.738;2024-01-27T05:14:21;9.00;;;2.75;;
72517;SDS011;60540;51.178;6.738;2024-01-27T05:17:06;5.05;;;2.30;;
72517;SDS011;60540;51.178;6.738;2024-01-27T05:19:50;6.20;;;2.47;;
72517;SDS011;60540;51.178;6.738;2024-01-27T05:22:35;5.82;;;2.30;;
72517;SDS011;60540;51.178;6.738;2024-01-27T05:25:19;7.13;;;2.10;;
72517;SDS011;60540;51.178;6.738;2024-01-27T05:28:04;12.20;;;2.78;;
72517;SDS011;60540;51.178;6.738;2024-01-27T05:30:48;7.63;;;2.75;;
72517;SDS011;60540;51.178;6.738;2024-01-27T05:33:32;5.55;;;1.90;;
72517;SDS011;60540;51.178;6.738;2024-01-27T05:36:16;6.70;;;2.17;;
72517;SDS011;60540;51.178;6.738;2024-01-27T05:39:01;7.45;;;2.17;;
72517;SDS011;60540;51.178;6.738;2024-01-27T05:41:47;5.32;;;1.80;;
72517;SDS011;60540;51.178;6.738;2024-01-27T05:44:33;6.97;;;1.95;;
72517;SDS011;60540;51.178;6.738;2024-01-27T05:47:17;6.75;;;2.03;;
72517;SDS011;60540;51.178;6.738;2024-01-27T05:50:02;7.75;;;2.47;;
72517;SDS011;60540;51.178;6.738;2024-01-27T05:52:47;10.40;;;3.10;;
72517;SDS011;60540;51.178;6.738;2024-01-27T05:55:31;13.68;;;2.78;;
72517;SDS011;60540;51.178;6.738;2024-01-27T05:58:15;7.20;;;2.53;;
72517;SDS011;60540;51.178;6.738;2024-01-27T06:01:00;8.10;;;2.38;;
72517;SDS011;60540;51.178;6.738;2024-01-27T06:03:44;9.75;;;2.30;;
72517;SDS011;60540;51.178;6.738;2024-01-27T06:06:29;6.95;;;2.72;;
72517;SDS011;60540;51.178;6.738;2024-01-27T06:09:13;8.82;;;2.35;;
72517;SDS011;60540;51.178;6.738;2024-01-27T06:11:59;8.15;;;2.42;;
72517;SDS011;60540;51.178;6.738;2024-01-27T06:14:44;5.85;;;2.78;;
72517;SDS011;60540;51.178;6.738;2024-01-27T06:17:28;10.43;;;2.53;;
72517;SDS011;60540;51.178;6.738;2024-01-27T06:20:13;6.30;;;2.55;;
72517;SDS011;60540;51.178;6.738;2024-01-27T06:22:57;8.95;;;3.13;;
72517;SDS011;60540;51.178;6.738;2024-01-27T06:25:42;7.47;;;3.10;;
72517;SDS011;60540;51.178;6.738;2024-01-27T06:28:26;7.68;;;2.40;;
72517;SDS011;60540;51.178;6.738;2024-01-27T06:31:11;7.68;;;2.75;;
72517;SDS011;60540;51.178;6.738;2024-01-27T06:33:56;8.45;;;2.83;;
72517;SDS011;60540;51.178;6.738;2024-01-27T06:36:40;8.25;;;2.53;;
72517;SDS011;60540;51.178;6.738;2024-01-27T06:39:24;10.88;;;2.70;;
72517;SDS011;60540;51.178;6.738;2024-01-27T06:42:08;11.48;;;3.70;;
72517;SDS011;60540;51.178;6.738;2024-01-27T06:44:52;7.70;;;2.33;;
72517;SDS011;60540;51.178;6.738;2024-01-27T06:47:37;6.57;;;2.80;;
72517;SDS011;60540;51.178;6.738;2024-01-27T06:50:21;8.60;;;2.13;;
72517;SDS011;60540;51.178;6.738;2024-01-27T06:53:06;7.18;;;2.38;;
72517;SDS011;60540;51.178;6.738;2024-01-27T06:55:50;7.80;;;2.97;;
72517;SDS011;60540;51.178;6.738;2024-01-27T06:58:35;6.57;;;2.80;;
72517;SDS011;60540;51.178;6.738;2024-01-27T07:04:05;5.90;;;2.50;;
72517;SDS011;60540;51.178;6.738;2024-01-27T07:06:49;10.05;;;2.58;;
72517;SDS011;60540;51.178;6.738;2024-01-27T07:09:33;9.90;;;3.30;;
72517;SDS011;60540;51.178;6.738;2024-01-27T07:12:17;9.25;;;2.58;;
72517;SDS011;60540;51.178;6.738;2024-01-27T07:15:02;9.18;;;3.15;;
72517;SDS011;60540;51.178;6.738;2024-01-27T07:17:46;7.80;;;2.58;;
72517;SDS011;60540;51.178;6.738;2024-01-27T07:20:30;8.13;;;2.97;;
72517;SDS011;60540;51.178;6.738;2024-01-27T07:23:15;7.93;;;4.32;;
72517;SDS011;60540;51.178;6.738;2024-01-27T07:25:59;9.52;;;3.80;;
72517;SDS011;60540;51.178;6.738;2024-01-27T07:28:47;9.18;;;3.45;;
72517;SDS011;60540;51.178;6.738;2024-01-27T07:31:31;10.77;;;3.50;;
72517;SDS011;60540;51.178;6.738;2024-01-27T07:34:16;8.07;;;3.33;;
72517;SDS011;60540;51.178;6.738;2024-01-27T07:37:00;8.18;;;3.25;;
72517;SDS011;60540;51.178;6.738;2024-01-27T07:39:44;8.40;;;3.33;;
72517;SDS011;60540;51.178;6.738;2024-01-27T07:42:28;11.05;;;4.13;;
72517;SDS011;60540;51.178;6.738;2024-01-27T07:45:12;9.95;;;3.30;;
72517;SDS011;60540;51.178;6.738;2024-01-27T07:47:56;7.45;;;2.88;;
72517;SDS011;60540;51.178;6.738;2024-01-27T07:50:41;10.10;;;3.67;;
72517;SDS011;60540;51.178;6.738;2024-01-27T07:53:29;12.48;;;3.45;;
72517;SDS011;60540;51.178;6.738;2024-01-27T07:56:14;8.45;;;3.45;;
72517;SDS011;60540;51.178;6.738;2024-01-27T07:58:58;9.23;;;4.10;;
72517;SDS011;60540;51.178;6.738;2024-01-27T08:01:43;8.02;;;3.15;;
72517;SDS011;60540;51.178;6.738;2024-01-27T08:04:27;10.32;;;3.50;;
72517;SDS011;60540;51.178;6.738;2024-01-27T08:07:11;7.80;;;3.13;;
72517;SDS011;60540;51.178;6.738;2024-01-27T08:09:58;9.50;;;3.63;;
72517;SDS011;60540;51.178;6.738;2024-01-27T08:12:43;7.75;;;3.30;;
72517;SDS011;60540;51.178;6.738;2024-01-27T08:15:27;6.63;;;2.80;;
72517;SDS011;60540;51.178;6.738;2024-01-27T08:18:11;8.27;;;2.95;;
72517;SDS011;60540;51.178;6.738;2024-01-27T08:20:55;8.45;;;3.42;;
72517;SDS011;60540;51.178;6.738;2024-01-27T08:23:40;7.47;;;2.83;;
72517;SDS011;60540;51.178;6.738;2024-01-27T08:26:25;5.85;;;2.90;;
72517;SDS011;60540;51.178;6.738;2024-01-27T08:29:09;10.10;;;3.13;;
72517;SDS011;60540;51.178;6.738;2024-01-27T08:31:53;9.15;;;3.35;;
72517;SDS011;60540;51.178;6.738;2024-01-27T08:34:38;11.82;;;3.60;;
72517;SDS011;60540;51.178;6.738;2024-01-27T08:37:22;10.25;;;3.85;;
72517;SDS011;60540;51.178;6.738;2024-01-27T08:40:07;10.60;;;3.85;;
72517;SDS011;60540;51.178;6.738;2024-01-27T08:42:52;11.10;;;4.03;;
72517;SDS011;60540;51.178;6.738;2024-01-27T08:45:39;11.98;;;4.43;;
72517;SDS011;60540;51.178;6.738;2024-01-27T08:48:23;11.60;;;4.03;;
72517;SDS011;60540;51.178;6.738;2024-01-27T08:51:08;7.93;;;3.47;;
72517;SDS011;60540;51.178;6.738;2024-01-27T08:56:41;8.10;;;2.25;;
72517;SDS011;60540;51.178;6.738;2024-01-27T08:59:25;6.50;;;2.63;;
72517;SDS011;60540;51.178;6.738;2024-01-27T09:02:09;8.05;;;3.00;;
72517;SDS011;60540;51.178;6.738;2024-01-27T09:04:53;6.65;;;2.67;;
72517;SDS011;60540;51.178;6.738;2024-01-27T09:07:38;7.05;;;3.20;;
72517;SDS011;60540;51.178;6.738;2024-01-27T09:10:22;8.73;;;2.70;;
72517;SDS011;60540;51.178;6.738;2024-01-27T09:13:07;7.80;;;2.90;;
72517;SDS011;60540;51.178;6.738;2024-01-27T09:15:51;8.90;;;3.08;;
72517;SDS011;60540;51.178;6.738;2024-01-27T09:18:35;5.90;;;2.17;;
72517;SDS011;60540;51.178;6.738;2024-01-27T09:21:19;7.35;;;2.75;;
72517;SDS011;60540;51.178;6.738;2024-01-27T09:24:06;13.43;;;3.00;;
72517;SDS011;60540;51.178;6.738;2024-01-27T09:26:51;6.63;;;2.50;;
72517;SDS011;60540;51.178;6.738;2024-01-27T09:29:36;7.18;;;2.42;;
72517;SDS011;60540;51.178;6.738;2024-01-27T09:32:20;8.93;;;3.05;;
72517;SDS011;60540;51.178;6.738;2024-01-27T09:35:04;11.93;;;3.78;;
72517;SDS011;60540;51.178;6.738;2024-01-27T09:37:49;7.63;;;3.42;;
72517;SDS011;60540;51.178;6.738;2024-01-27T09:40:33;9.85;;;3.33;;
72517;SDS011;60540;51.178;6.738;2024-01-27T09:43:17;6.70;;;3.00;;
72517;SDS011;60540;51.178;6.738;2024-01-27T09:46:02;8.23;;;3.47;;
72517;SDS011;60540;51.178;6.738;2024-01-27T09:48:46;8.40;;;2.75;;
72517;SDS011;60540;51.178;6.738;2024-01-27T09:51:31;8.73;;;3.22;;
72517;SDS011;60540;51.178;6.738;2024-01-27T09:54:15;9.88;;;3.65;;
72517;SDS011;60540;51.178;6.738;2024-01-27T09:57:01;11.32;;;3.38;;
72517;SDS011;60540;51.178;6.738;2024-01-27T09:59:45;9.90;;;4.15;;
72517;SDS011;60540;51.178;6.738;2024-01-27T10:02:30;11.13;;;3.72;;
72517;SDS011;60540;51.178;6.738;2024-01-27T10:05:15;7.07;;;2.60;;
72517;SDS011;60540;51.178;6.738;2024-01-27T10:08:00;6.65;;;3.05;;
72517;SDS011;60540;51.178;6.738;2024-01-27T10:10:44;7.45;;;2.53;;
72517;SDS011;60540;51.178;6.738;2024-01-27T10:13:28;7.80;;;2.75;;
72517;SDS011;60540;51.178;6.738;2024-01-27T10:16:13;6.22;;;2.45;;
72517;SDS011;60540;51.178;6.738;2024-01-27T10:19:01;8.68;;;2.67;;
72517;SDS011;60540;51.178;6.738;2024-01-27T10:21:45;10.55;;;3.00;;
72517;SDS011;60540;51.178;6.738;2024-01-27T10:24:33;7.50;;;2.45;;
72517;SDS011;60540;51.178;6.738;2024-01-27T10:27:20;9.57;;;2.65;;
72517;SDS011;60540;51.178;6.738;2024-01-27T10:30:05;6.80;;;2.90;;
72517;SDS011;60540;51.178;6.738;2024-01-27T10:32:54;8.85;;;3.13;;
72517;SDS011;60540;51.178;6.738;2024-01-27T10:35:40;9.82;;;3.40;;
72517;SDS011;60540;51.178;6.738;2024-01-27T10:38:37;8.73;;;3.03;;
72517;SDS011;60540;51.178;6.738;2024-01-27T10:41:22;12.38;;;3.47;;
72517;SDS011;60540;51.178;6.738;2024-01-27T10:44:13;12.77;;;3.25;;
72517;SDS011;60540;51.178;6.738;2024-01-27T10:47:00;8.75;;;3.03;;
72517;SDS011;60540;51.178;6.738;2024-01-27T10:49:46;7.72;;;2.92;;
72517;SDS011;60540;51.178;6.738;2024-01-27T10:52:32;9.10;;;2.88;;
72517;SDS011;60540;51.178;6.738;2024-01-27T10:55:16;8.77;;;2.85;;
72517;SDS011;60540;51.178;6.738;2024-01-27T10:58:01;9.70;;;3.03;;
72517;SDS011;60540;51.178;6.738;2024-01-27T11:00:46;7.40;;;3.15;;
72517;SDS011;60540;51.178;6.738;2024-01-27T11:03:32;7.03;;;2.83;;
72517;SDS011;60540;51.178;6.738;2024-01-27T11:06:17;10.38;;;3.03;;
72517;SDS011;60540;51.178;6.738;2024-01-27T11:09:03;7.88;;;2.78;;
72517;SDS011;60540;51.178;6.738;2024-01-27T11:11:48;10.88;;;2.65;;
72517;SDS011;60540;51.178;6.738;2024-01-27T11:14:33;14.75;;;4.22;;
72517;SDS011;60540;51.178;6.738;2024-01-27T11:17:17;7.53;;;3.05;;
72517;SDS011;60540;51.178;6.738;2024-01-27T11:22:47;11.25;;;2.38;;
72517;SDS011;60540;51.178;6.738;2024-01-27T11:25:33;10.90;;;2.60;;
72517;SDS011;60540;51.178;6.738;2024-01-27T11:28:17;10.93;;;2.80;;
72517;SDS011;60540;51.178;6.738;2024-01-27T11:31:07;10.20;;;2.85;;
72517;SDS011;60540;51.178;6.738;2024-01-27T11:33:52;7.20;;;2.53;;
72517;SDS011;60540;51.178;6.738;2024-01-27T11:36:36;11.27;;;2.83;;
72517;SDS011;60540;51.178;6.738;2024-01-27T11:39:27;7.15;;;2.10;;
72517;SDS011;60540;51.178;6.738;2024-01-27T11:42:13;7.70;;;2.92;;
72517;SDS011;60540;51.178;6.738;2024-01-27T11:44:57;5.75;;;1.92;;
72517;SDS011;60540;51.178;6.738;2024-01-27T11:47:41;9.73;;;2.75;;
72517;SDS011;60540;51.178;6.738;2024-01-27T11:50:27;6.30;;;2.33;;
72517;SDS011;60540;51.178;6.738;2024-01-27T11:53:12;9.40;;;2.50;;
72517;SDS011;60540;51.178;6.738;2024-01-27T11:55:56;6.53;;;2.20;;
72517;SDS011;60540;51.178;6.738;2024-01-27T11:58:47;6.93;;;2.22;;
72517;SDS011;60540;51.178;6.738;2024-01-27T12:01:34;7.18;;;2.30;;
72517;SDS011;60540;51.178;6.738;2024-01-27T12:04:19;9.05;;;2.47;;
72517;SDS011;60540;51.178;6.738;2024-01-27T12:07:05;6.03;;;2.22;;
72517;SDS011;60540;51.178;6.738;2024-01-27T12:09:51;8.48;;;2.15;;
72517;SDS011;60540;51.178;6.738;2024-01-27T12:12:35;8.52;;;1.75;;
72517;SDS011;60540;51.178;6.738;2024-01-27T12:15:19;8.55;;;2.00;;
72517;SDS011;60540;51.178;6.738;2024-01-27T12:18:05;7.38;;;2.00;;
72517;SDS011;60540;51.178;6.738;2024-01-27T12:20:54;7.60;;;2.47;;
72517;SDS011;60540;51.178;6.738;2024-01-27T12:23:54;7.63;;;2.38;;
72517;SDS011;60540;51.178;6.738;2024-01-27T12:26:42;8.15;;;1.90;;
72517;SDS011;60540;51.178;6.738;2024-01-27T12:29:26;7.43;;;1.70;;
72517;SDS011;60540;51.178;6.738;2024-01-27T12:32:12;10.63;;;2.75;;
72517;SDS011;60540;51.178;6.738;2024-01-27T12:34:57;8.02;;;2.20;;
72517;SDS011;60540;51.178;6.738;2024-01-27T12:37:43;9.18;;;2.70;;
72517;SDS011;60540;51.178;6.738;2024-01-27T12:40:27;10.07;;;2.03;;
72517;SDS011;60540;51.178;6.738;2024-01-27T12:43:12;7.72;;;1.90;;
72517;SDS011;60540;51.178;6.738;2024-01-27T12:45:56;6.70;;;1.80;;
72517;SDS011;60540;51.178;6.738;2024-01-27T12:48:41;6.20;;;2.05;;
72517;SDS011;60540;51.178;6.738;2024-01-27T12:51:25;7.25;;;1.80;;
72517;SDS011;60540;51.178;6.738;2024-01-27T12:54:09;6.30;;;2.08;;
72517;SDS011;60540;51.178;6.738;2024-01-27T12:56:54;9.18;;;2.08;;
72517;SDS011;60540;51.178;6.738;2024-01-27T12:59:39;8.05;;;2.00;;
72517;SDS011;60540;51.178;6.738;2024-01-27T13:02:24;7.43;;;2.22;;
72517;SDS011;60540;51.178;6.738;2024-01-27T13:05:09;7.63;;;2.17;;
72517;SDS011;60540;51.178;6.738;2024-01-27T13:07:53;8.88;;;2.45;;
72517;SDS011;60540;51.178;6.738;2024-01-27T13:10:37;9.23;;;2.10;;
72517;SDS011;60540;51.178;6.738;2024-01-27T13:13:21;10.07;;;2.30;;
72517;SDS011;60540;51.178;6.738;2024-01-27T13:16:06;8.90;;;2.10;;
72517;SDS011;60540;51.178;6.738;2024-01-27T13:18:50;8.90;;;2.00;;
72517;SDS011;60540;51.178;6.738;2024-01-27T13:21:34;8.93;;;2.10;;
72517;SDS011;60540;51.178;6.738;2024-01-27T13:24:18;6.07;;;1.98;;
72517;SDS011;60540;51.178;6.738;2024-01-27T13:27:04;7.82;;;1.60;;
72517;SDS011;60540;51.178;6.738;2024-01-27T13:29:49;4.97;;;1.40;;
72517;SDS011;60540;51.178;6.738;2024-01-27T13:32:34;8.68;;;1.88;;
72517;SDS011;60540;51.178;6.738;2024-01-27T13:35:18;5.40;;;1.50;;
72517;SDS011;60540;51.178;6.738;2024-01-27T13:38:03;10.00;;;2.40;;
72517;SDS011;60540;51.178;6.738;2024-01-27T13:40:47;7.30;;;1.70;;
72517;SDS011;60540;51.178;6.738;2024-01-27T13:43:31;6.47;;;2.13;;
72517;SDS011;60540;51.178;6.738;2024-01-27T13:46:15;2.95;;;1.02;;
72517;SDS011;60540;51.178;6.738;2024-01-27T13:49:00;7.00;;;1.38;;
72517;SDS011;60540;51.178;6.738;2024-01-27T13:51:44;6.35;;;1.52;;
72517;SDS011;60540;51.178;6.738;2024-01-27T13:54:29;5.38;;;1.50;;
72517;SDS011;60540;51.178;6.738;2024-01-27T13:57:14;9.57;;;1.38;;
72517;SDS011;60540;51.178;6.738;2024-01-27T13:59:59;5.25;;;1.58;;
72517;SDS011;60540;51.178;6.738;2024-01-27T14:02:43;7.57;;;1.40;;
72517;SDS011;60540;51.178;6.738;2024-01-27T14:05:28;8.45;;;1.13;;
72517;SDS011;60540;51.178;6.738;2024-01-27T14:08:13;4.97;;;1.30;;
72517;SDS011;60540;51.178;6.738;2024-01-27T14:10:58;6.85;;;1.42;;
72517;SDS011;60540;51.178;6.738;2024-01-27T14:13:42;6.35;;;1.63;;
72517;SDS011;60540;51.178;6.738;2024-01-27T14:16:27;8.10;;;1.77;;
72517;SDS011;60540;51.178;6.738;2024-01-27T14:19:12;8.82;;;2.10;;
72517;SDS011;60540;51.178;6.738;2024-01-27T14:21:57;4.45;;;1.40;;
72517;SDS011;60540;51.178;6.738;2024-01-27T14:24:41;5.57;;;1.73;;
72517;SDS011;60540;51.178;6.738;2024-01-27T14:27:26;8.80;;;1.65;;
72517;SDS011;60540;51.178;6.738;2024-01-27T14:30:10;11.65;;;2.45;;
72517;SDS011;60540;51.178;6.738;2024-01-27T14:35:39;3.38;;;1.45;;
72517;SDS011;60540;51.178;6.738;2024-01-27T14:38:23;7.43;;;2.05;;
72517;SDS011;60540;51.178;6.738;2024-01-27T14:41:08;5.43;;;1.50;;
72517;SDS011;60540;51.178;6.738;2024-01-27T14:43:52;6.10;;;1.65;;
72517;SDS011;60540;51.178;6.738;2024-01-27T14:46:36;5.13;;;1.88;;
72517;SDS011;60540;51.178;6.738;2024-01-27T14:49:24;8.25;;;1.90;;
72517;SDS011;60540;51.178;6.738;2024-01-27T14:52:08;7.38;;;1.38;;
72517;SDS011;60540;51.178;6.738;2024-01-27T14:54:52;7.32;;;1.80;;
72517;SDS011;60540;51.178;6.738;2024-01-27T14:57:36;5.82;;;1.38;;
72517;SDS011;60540;51.178;6.738;2024-01-27T15:00:21;6.97;;;1.83;;
72517;SDS011;60540;51.178;6.738;2024-01-27T15:03:08;5.32;;;2.33;;
72517;SDS011;60540;51.178;6.738;2024-01-27T15:05:52;7.13;;;1.90;;
72517;SDS011;60540;51.178;6.738;2024-01-27T15:08:36;7.40;;;1.73;;
72517;SDS011;60540;51.178;6.738;2024-01-27T15:11:21;9.25;;;2.00;;
72517;SDS011;60540;51.178;6.738;2024-01-27T15:14:05;6.32;;;1.50;;
72517;SDS011;60540;51.178;6.738;2024-01-27T15:16:50;6.15;;;1.60;;
72517;SDS011;60540;51.178;6.738;2024-01-27T15:19:34;6.38;;;1.52;;
72517;SDS011;60540;51.178;6.738;2024-01-27T15:22:18;6.53;;;1.80;;
72517;SDS011;60540;51.178;6.738;2024-01-27T15:25:03;5.15;;;1.27;;
72517;SDS011;60540;51.178;6.738;2024-01-27T15:27:48;5.45;;;2.00;;
72517;SDS011;60540;51.178;6.738;2024-01-27T15:30:34;6.72;;;1.60;;
72517;SDS011;60540;51.178;6.738;2024-01-27T15:33:18;5.50;;;1.63;;
72517;SDS011;60540;51.178;6.738;2024-01-27T15:36:03;6.00;;;2.33;;
72517;SDS011;60540;51.178;6.738;2024-01-27T15:41:32;6.22;;;2.15;;
72517;SDS011;60540;51.178;6.738;2024-01-27T15:44:16;5.22;;;1.50;;
72517;SDS011;60540;51.178;6.738;2024-01-27T15:47:00;6.72;;;1.70;;
72517;SDS011;60540;51.178;6.738;2024-01-27T15:49:44;4.85;;;1.60;;
72517;SDS011;60540;51.178;6.738;2024-01-27T15:52:29;4.63;;;1.77;;
72517;SDS011;60540;51.178;6.738;2024-01-27T15:55:14;7.88;;;1.90;;
72517;SDS011;60540;51.178;6.738;2024-01-27T15:57:59;6.93;;;2.13;;
72517;SDS011;60540;51.178;6.738;2024-01-27T16:00:43;5.68;;;2.13;;
72517;SDS011;60540;51.178;6.738;2024-01-27T16:03:27;8.43;;;2.75;;
72517;SDS011;60540;51.178;6.738;2024-01-27T16:06:12;7.95;;;3.47;;
72517;SDS011;60540;51.178;6.738;2024-01-27T16:08:56;6.97;;;2.38;;
72517;SDS011;60540;51.178;6.738;2024-01-27T16:11:41;7.45;;;2.80;;
72517;SDS011;60540;51.178;6.738;2024-01-27T16:14:25;6.47;;;2.60;;
72517;SDS011;60540;51.178;6.738;2024-01-27T16:17:10;8.20;;;2.80;;
72517;SDS011;60540;51.178;6.738;2024-01-27T16:22:39;5.55;;;1.85;;
72517;SDS011;60540;51.178;6.738;2024-01-27T16:25:23;6.80;;;1.80;;
72517;SDS011;60540;51.178;6.738;2024-01-27T16:28:07;6.18;;;1.75;;
72517;SDS011;60540;51.178;6.738;2024-01-27T16:30:52;8.52;;;2.58;;
72517;SDS011;60540;51.178;6.738;2024-01-27T16:33:37;5.05;;;1.63;;
72517;SDS011;60540;51.178;6.738;2024-01-27T16:36:21;10.68;;;2.75;;
72517;SDS011;60540;51.178;6.738;2024-01-27T16:39:05;5.55;;;2.00;;
72517;SDS011;60540;51.178;6.738;2024-01-27T16:41:50;6.13;;;1.75;;
72517;SDS011;60540;51.178;6.738;2024-01-27T16:44:35;5.60;;;1.77;;
72517;SDS011;60540;51.178;6.738;2024-01-27T16:47:19;6.78;;;1.90;;